Tompa, Hungary
Current Conditions -  °F | °C
As of 10:45 PM on Thursday 27 Nov 2014 (Local Time) from LHUD Reporting Station
Haze Haze  
Wind Chill: 27°   Ceiling: 8300
Heat Index: 34°   Visibility: 2.8mi
Dew Point: 32°   Wind: 8mph
Humidity: 93%   Direction: 80°E
Pressure: 30.12"   Gusts: NA
Location:  46.21°N, 19.54°E
Report Text: LHUD 272045Z 08007KT 4500 BR SCT023 OVC083 01/M00 Q1020 RERA
Loading
Personal Weather Stations






























Interactive Weather Map New forecast layout! Learn more

10-Day Weather Forecast

Advertisements
Track Severe Weather on mobile